Weather observations for the past three days for
Big Bear City Airport
Imperial (Metric)
Date Time (pdt) Wind (mph) Vis. (mi.) Weather Sky Cond. Temperature (ºF) Relative Humidity Wind Chill (°F) Heat Index (°F) Pressure Precipitation (in)
Air Dwpt 6 hour altimeter (in) sea level (mb) 1 hr 3 hr 6 hr
Max. Min.
10 00:55 Calm 10.00 Fair CLR 40.8 18.3 40% 30.21 0.0
10 00:35 Calm 10.00 Fair CLR 40.6 16.3 37% 30.2 0.0
10 00:15 Calm 10.00 Fair CLR 41.4 17.4 38% 30.21 0.0
09 23:55 SW 3 10.00 Fair CLR 42.3 16.5 35% 30.21 0.0
09 23:35 Calm 10.00 Fair CLR 42.6 16.9 35% 30.21 0.0
09 23:15 Calm 10.00 Fair CLR 43.3 15.4 32% 30.21 0.0
09 22:55 Calm 10.00 Fair CLR 44.6 14.4 72.5 44.6 29% 30.21 0.0
09 22:35 SW 3 10.00 Fair CLR 45 14 29% 30.21 0.0
09 22:15 Calm 10.00 Fair CLR 46.4 12.9 26% 30.21 0.0
09 21:55 Calm 10.00 Fair CLR 48.6 15.3 26% 30.2 0.0
09 21:35 S 3 10.00 Fair CLR 49.1 18.3 29% 30.19 0.0
09 21:15 Calm 10.00 Fair CLR 51.1 20.3 30% 30.19 0.0
09 20:55 Calm 10.00 Fair CLR 53.4 22.1 29% 30.18 0.0
09 20:35 Calm 10.00 Fair CLR 55 22.3 28% 30.18 0.0
09 20:15 Calm 10.00 Fair CLR 57.7 24.4 28% 30.17 0.0
09 19:55 Calm 9.00 Fair CLR 61.9 25.3 25% 30.17 0.0
09 19:35 W 3 9.00 Fair CLR 64 22.1 20% 30.17 0.0
09 19:15 W 6 10.00 Fair CLR 65.7 22.3 19% 30.16 0.0
09 18:55 W 8 9.00 Fair CLR 67.6 23 18% 30.16 0.0
09 18:35 W 7 9.00 Fair CLR 68.4 23.7 18% 30.16 0.0
09 18:15 W 13 10.00 Fair CLR 69.6 16.7 13% 30.16 0.0
09 17:55 W 9 8.00 Fair CLR 70.7 16 12% 30.15 0.0
09 17:35 W 13 9.00 Fair CLR 70.9 17.2 13% 30.15 0.0
09 17:15 W 14 9.00 Fair CLR 71.8 19.4 14% 30.15 0.0
09 16:55 W 12 10.00 Fair CLR 72.5 19.2 75 72.3 13% 30.15 0.0
09 16:35 W 13 9.00 Fair CLR 73.2 18 12% 30.15 0.0
09 16:15 W 12 9.00 Fair CLR 73.6 19.6 13% 30.15 0.0
09 15:55 W 15 10.00 Fair CLR 73.4 20.8 14% 30.15 0.0
09 15:35 W 14 10.00 Fair CLR 72.7 18.1 12% 30.16 0.0
09 15:15 W 14 10.00 Fair CLR 73.9 19.9 13% 30.16 0.0
09 14:55 W 14 9.00 Fair CLR 73.9 19.6 13% 30.17 0.0
09 14:35 W 10 10.00 Fair CLR 73.8 18.3 12% 30.17 0.0
09 14:15 W 10 10.00 Fair CLR 73.9 16.3 11% 30.18 0.0
09 13:55 W 12 10.00 Fair CLR 74.3 18 12% 30.18 0.0
09 13:35 W 9 G 16 10.00 A Few Clouds FEW320 73.9 16.2 11% 30.18 0.0
09 13:15 W 10 10.00 A Few Clouds FEW310 74.3 16 11% 30.19 0.0
09 12:55 W 10 10.00 A Few Clouds FEW370 73.9 15.3 11% 30.19 0.0
09 12:35 W 8 10.00 Fair CLR 73.8 15.1 11% 30.19 0.0
09 12:15 W 9 10.00 Fair CLR 74.3 14.2 10% 30.19 0.0
09 11:55 W 12 10.00 Fair CLR 73.8 13.3 10% 30.19 0.0
09 11:35 W 10 10.00 Fair CLR 73.4 11.1 9% 30.19 0.0
09 11:15 W 8 10.00 Fair CLR 73.6 10.8 9% 30.19 0.0
09 10:55 W 8 10.00 Fair CLR 73.4 12 73.4 32 9% 30.19 0.0
09 10:35 W 7 10.00 Fair CLR 72 12.4 10% 30.19 0.0
09 10:15 W 6 10.00 Fair CLR 71.2 14.4 11% 30.19 0.0
09 09:55 W 7 10.00 Fair CLR 70.7 17.1 13% 30.19 0.0
09 09:35 Vrbl 6 10.00 Fair CLR 69.6 17.6 14% 30.19 0.0
09 09:15 W 5 10.00 Fair CLR 68.2 18.1 15% 30.19 0.0
09 08:55 W 3 10.00 Fair CLR 62.6 28.4 27% 30.19 0.0
09 08:35 W 6 10.00 Fair CLR 59.4 29.5 32% 30.19 0.0
09 08:15 W 5 10.00 Fair CLR 55.4 30.6 39% 30.19 0.0
09 07:55 W 5 10.00 Fair CLR 50.9 29.1 43% 30.19 0.0
09 07:35 Calm 10.00 Fair CLR 47.1 30.6 53% 30.19 0.0
09 07:15 Calm 10.00 Fair CLR 42.1 23.5 48% 30.19 0.0
09 06:55 Calm 10.00 Fair CLR 37.4 19.9 49% 30.19 0.0
09 06:35 W 3 10.00 Fair CLR 35.4 19.6 53% 30.19 0.0
09 06:15 Calm 9.00 Fair CLR 33.1 17.2 52% 30.18 0.0
09 05:55 Calm 10.00 Fair CLR 32.2 16 51% 30.18 0.0
09 05:35 Calm 10.00 Fair CLR 32.7 14.4 47% 30.18 0.0
09 05:15 Calm 10.00 Fair CLR 32.9 15.1 48% 30.18 0.0
09 04:55 Calm 10.00 Fair CLR 33.1 16.5 43.7 33.1 51% 30.18 0.0
09 04:35 Calm 10.00 Fair CLR 33.6 13.3 43% 30.18 0.0
09 04:15 Calm 10.00 Fair CLR 34 14.9 45% 30.18 0.0
09 03:55 Calm 10.00 Fair CLR 34.2 15.4 46% 30.18 0.0
09 03:35 Calm 10.00 Fair CLR 34.3 14 43% 30.18 0.0
09 03:15 Calm 10.00 Fair CLR 34.9 14.5 43% 30.19 0.0
09 02:55 Calm 10.00 Fair CLR 35.4 16 45% 30.19 0.0
09 02:35 Calm 10.00 Fair CLR 36 17.1 46% 30.19 0.0
09 02:15 Calm 10.00 Fair CLR 36.5 16 43% 30.19 0.0
09 01:55 Calm 10.00 A Few Clouds FEW330 37.4 17.2 44% 30.2 0.0
09 01:35 SW 3 10.00 A Few Clouds FEW330 37.9 18.7 46% 30.2 0.0
09 01:15 SW 3 10.00 Fair CLR 38.8 21.2 49% 30.2 0.0
09 00:55 SW 3 10.00 A Few Clouds FEW320 39.6 22.5 50% 30.21 0.0
09 00:35 Calm 10.00 A Few Clouds FEW310 40.3 23.2 51% 30.21 0.0
09 00:15 Calm 10.00 Fair CLR 41 23.7 50% 30.21 0.0
08 23:55 Calm 10.00 Fair CLR 41.9 23.9 49% 30.22 0.0
08 23:35 Calm 10.00 Fair CLR 42.8 23.9 47% 30.22 0.0
08 23:15 Calm 10.00 Fair CLR 43.2 23.9 47% 30.22 0.0
08 22:55 Calm 10.00 Fair CLR 44.6 26.1 71.2 44.6 48% 30.22 0.0
08 22:35 Calm 10.00 Fair CLR 45.5 27.7 50% 30.22 0.0
08 22:15 Calm 10.00 Fair CLR 46.6 28.8 50% 30.22 0.0
08 21:55 Calm 10.00 Fair CLR 49.3 31.1 50% 30.22 0.0
08 21:35 Calm 10.00 Fair CLR 51.4 33.8 51% 30.22 0.0
08 21:15 Calm 10.00 Fair CLR 52.9 35.4 52% 30.21 0.0
08 20:55 W 6 10.00 Fair CLR 55.9 36.7 49% 30.21 0.0
08 20:35 W 3 10.00 Fair CLR 56.7 37 48% 30.2 0.0
08 20:15 SW 6 10.00 Fair CLR 58.1 36.3 44% 30.2 0.0
08 19:55 SW 5 9.00 Fair CLR 59.9 38.1 45% 30.19 0.0
08 19:35 SW 3 9.00 Fair CLR 61.5 36.7 40% 30.19 0.0
08 19:15 W 9 9.00 Fair CLR 63.3 36.7 37% 30.19 0.0
08 18:55 W 9 8.00 Fair CLR 65.5 35.2 33% 30.18 0.0
08 18:35 W 8 9.00 Fair CLR 65.7 34.9 32% 30.18 0.0
08 18:15 W 8 9.00 Fair CLR 66.9 33.3 29% 30.18 0.0
08 17:55 W 10 8.00 Fair CLR 68.4 32.5 27% 30.18 0.0
08 17:35 W 13 G 17 9.00 Fair CLR 68.7 32.5 26% 30.19 0.0
08 17:15 W 10 9.00 Fair CLR 70.2 28.9 22% 30.18 0.0
08 16:55 SW 10 8.00 Fair CLR 71.8 22.5 74.5 70.9 16% 30.18 0.0
08 16:35 W 9 8.00 Fair CLR 72.9 23.4 16% 30.18 0.0
08 16:15 W 13 G 17 9.00 Fair CLR 72.7 27 18% 30.19 0.0
08 15:55 W 14 10.00 Fair CLR 73.6 27.7 18% 30.19 0.0
08 15:35 W 8 10.00 Fair CLR 74.3 27.1 17% 30.19 0.0
08 15:15 Vrbl 7 9.00 Fair CLR 73.4 25.3 17% 30.2 0.0
08 14:55 W 12 G 16 9.00 Fair CLR 73.4 24.4 16% 30.21 0.0
08 14:35 W 12 10.00 Fair CLR 72.9 24.1 16% 30.21 0.0
08 14:15 W 10 10.00 Fair CLR 72.7 24.3 16% 30.21 0.0
08 13:55 W 10 10.00 Fair CLR 72.9 21.6 14% 30.22 0.0
08 13:35 W 12 10.00 Fair CLR 72.7 20.1 14% 30.22 0.0
08 13:15 W 12 10.00 Fair CLR 72.1 20.3 14% 30.22 0.0
08 12:55 W 13 10.00 Fair CLR 72.7 21.7 15% 30.22 0.0
08 12:35 W 13 G 17 10.00 Fair CLR 72.5 21.7 15% 30.23 0.0
08 12:15 W 14 10.00 Fair CLR 72 21.6 15% 30.23 0.0
08 11:55 W 13 10.00 Fair CLR 71.8 22.5 16% 30.23 0.0
08 11:35 W 10 10.00 Fair CLR 71.4 21.6 15% 30.23 0.0
08 11:15 W 14 10.00 Fair CLR 71.6 22.1 15% 30.23 0.0
08 10:55 W 7 10.00 Fair CLR 71.2 21.7 71.6 34 15% 30.23 0.0
08 10:35 W 10 9.00 Fair CLR 70.3 24.8 18% 30.22 0.0
08 10:15 W 7 9.00 Fair CLR 70.2 23.4 17% 30.23 0.0
08 09:55 W 6 10.00 Fair CLR 68.4 20.5 16% 30.23 0.0
08 09:35 W 6 10.00 Fair CLR 67.3 22.8 18% 30.23 0.0
08 09:15 W 7 10.00 Fair CLR 65.7 23.5 20% 30.23 0.0
08 08:55 W 7 10.00 Fair CLR 65.1 23.7 21% 30.23 0.0
08 08:35 W 5 10.00 Fair CLR 61.7 32 33% 30.23 0.0
08 08:15 W 3 9.00 Fair CLR 56.5 34.3 43% 30.23 0.0
08 07:55 W 7 10.00 Fair CLR 51.3 33.1 50% 30.23 0.0
08 07:35 W 3 10.00 Fair CLR 48.7 34.5 58% 30.23 0.0
08 07:15 W 6 9.00 Fair CLR 44.1 33.4 66% 41 30.23 0.0
08 06:55 W 5 9.00 Fair CLR 39.2 29.1 67% 36 30.23 0.0
08 06:35 W 3 9.00 Fair CLR 36.9 26.4 66% 30.23 0.0
08 06:15 SW 3 9.00 Fair CLR 34.5 24.1 66% 30.22 0.0
08 05:55 SW 3 9.00 Fair CLR 34 23.9 67% 30.22 0.0
08 05:35 Calm 10.00 Fair CLR 34.5 25.3 69% 30.21 0.0
08 05:15 Calm 10.00 Fair CLR 34.7 25.2 68% 30.21 0.0
08 04:55 W 3 10.00 Fair CLR 35.1 25.3 45 34.7 68% 30.21 0.0
08 04:35 Calm 10.00 Fair CLR 35.1 24.8 66% 30.21 0.0
08 04:15 Calm 10.00 Fair CLR 35.4 25 66% 30.22 0.0
08 03:55 Calm 10.00 Fair CLR 35.8 25.7 67% 30.22 0.0
08 03:35 Calm 10.00 Fair CLR 36.1 25.3 65% 30.22 0.0
08 03:15 Calm 10.00 Fair CLR 36.7 25.7 64% 30.22 0.0
08 02:55 Calm 10.00 Fair CLR 37.2 25.9 64% 30.22 0.0
08 02:35 Calm 10.00 Fair CLR 37.8 25.7 62% 30.22 0.0
08 02:15 Calm 10.00 Fair CLR 38.5 26.6 62% 30.23 0.0
08 01:55 Calm 10.00 Fair CLR 38.8 26.6 62% 30.23 0.0
08 01:35 Calm 10.00 Fair CLR 39.4 27 61% 30.23 0.0
08 01:15 Calm 10.00 Fair CLR 40.5 28.6 63% 30.24 0.0
08 00:55 Calm 10.00 Fair CLR 41.2 29.5 63% 30.24 0.0
08 00:35 Calm 10.00 Fair CLR 41.5 29.1 61% 30.25 0.0
08 00:15 Calm 10.00 Fair CLR 42.3 29.8 62% 30.25 0.0
07 23:55 Calm 10.00 Fair CLR 43.3 30.6 61% 30.25 0.0
07 23:35 Calm 10.00 Fair CLR 43.9 30.2 59% 30.25 0.0
07 23:15 Calm 10.00 Fair CLR 44.4 30.4 58% 30.25 0.0
07 22:55 Calm 10.00 Fair CLR 45.9 30.9 67.5 45.9 56% 30.25 0.0
07 22:35 Calm 10.00 Fair CLR 46.6 30.4 53% 30.25 0.0
07 22:15 Calm 10.00 Fair CLR 47.7 30.7 52% 30.25 0.0
07 21:55 Calm 10.00 Fair CLR 48.9 30.4 49% 30.25 0.0
07 21:35 Calm 10.00 Fair CLR 49.8 29.8 46% 30.25 0.0
07 21:15 Calm 10.00 Fair CLR 50.9 29.7 44% 30.24 0.0
07 20:55 SW 3 9.00 Fair CLR 52.9 30.4 42% 30.23 0.0
07 20:35 SW 3 10.00 Fair CLR 55.9 32.2 41% 30.23 0.0
07 20:15 W 5 9.00 Fair CLR 55.9 34.7 45% 30.22 0.0
07 19:55 W 5 8.00 Fair CLR 58.5 31.3 36% 30.22 0.0
07 19:35 SW 7 8.00 Fair CLR 59.5 29.7 32% 30.22 0.0
07 19:15 W 9 8.00 Fair CLR 61.2 34.2 36% 30.21 0.0
07 18:55 W 12 8.00 Fair CLR 62.8 36.1 37% 30.21 0.0
07 18:35 W 12 8.00 Fair CLR 63.1 37 38% 30.21 0.0
07 18:15 SW 7 8.00 Fair CLR 63.9 32.7 31% 30.2 0.0
07 17:55 Vrbl 6 8.00 Fair CLR 65.5 32.9 30% 30.2 0.0
07 17:35 SW 6 G 18 8.00 Fair CLR 65.8 31.6 28% 30.2 0.0
07 17:15 SW 6 G 18 8.00 Fair CLR 66.6 30.4 26% 30.2 0.0
07 16:55 W 9 8.00 Fair CLR 67.6 31.3 70.9 64.8 26% 30.2 0.0
07 16:35 SW 9 8.00 Fair CLR 67.8 29.5 24% 30.19 0.0
07 16:15 W 13 G 18 8.00 Fair CLR 67.6 33.4 28% 30.19 0.0
07 15:55 W 12 9.00 Fair CLR 68.5 30.4 24% 30.2 0.0
07 15:35 NW 12 G 17 10.00 Fair CLR 69.3 26.2 20% 30.2 0.0
07 15:15 N 10 G 20 9.00 Fair CLR 70.5 22.5 16% 30.2 0.0
07 14:55 E 6 9.00 Fair CLR 68.4 20.5 16% 30.21 0.0
07 14:35 Vrbl 6 9.00 Fair CLR 69.6 21.7 16% 30.22 0.0
07 14:15 NW 6 9.00 Fair CLR 69.3 19.2 15% 30.22 0.0
07 13:15 E 9 10.00 A Few Clouds FEW370 67.3 19.6 16% 30.23 0.0
07 12:55 Vrbl 3 10.00 Fair CLR 67.3 20.3 17% 30.23 0.0
07 12:35 Vrbl 6 10.00 Fair CLR 66.7 19.9 17% 30.24 0.0
07 12:15 Vrbl 5 10.00 Fair CLR 65.8 19.2 17% 30.25 0.0
07 11:55 SE 6 9.00 Fair CLR 66 21.2 18% 30.26 0.0
07 11:35 E 5 10.00 Fair CLR 66.2 22.1 19% 30.26 0.0
07 11:15 NE 12 10.00 Fair CLR 66 21.2 18% 30.26 0.0
07 10:55 NE 8 10.00 Fair CLR 65.1 22.6 65.7 32.2 20% 30.26 0.0
07 10:35 Vrbl 6 9.00 Fair CLR 63.7 21.6 20% 30.26 0.0
07 10:15 E 9 9.00 Fair CLR 64.6 22.6 20% 30.26 0.0
07 09:55 Vrbl 5 10.00 Fair CLR 62.6 24.1 23% 30.26 0.0
07 09:35 Vrbl 6 10.00 Fair CLR 62.8 24.3 23% 30.26 0.0
07 09:15 Vrbl 3 10.00 Fair CLR 61.9 26.6 26% 30.26 0.0
07 08:55 Calm 10.00 Fair CLR 57.9 30 35% 30.26 0.0
07 08:35 W 5 10.00 Fair CLR 56.1 31.5 39% 30.26 0.0
07 08:15 NW 3 10.00 Fair CLR 52.2 31.3 45% 30.26 0.0
07 07:55 W 6 10.00 Fair CLR 47.8 34.3 60% 46 30.26 0.0
07 07:35 Calm 10.00 Fair CLR 45.5 34.3 65% 30.26 0.0
07 07:15 W 3 9.00 Fair CLR 42.4 33.6 71% 30.26 0.0
07 06:55 S 3 8.00 Fair CLR 36.1 27.7 71% 30.26 0.0
07 06:35 W 3 9.00 Fair CLR 34.7 27.9 76% 30.26 0.0
07 06:15 Calm 9.00 Fair CLR 32.9 26.4 77% 30.25 0.0
07 05:55 Calm 9.00 Fair CLR 32.4 26.2 78% 30.25 0.0
07 05:35 Calm 10.00 Fair CLR 32.7 26.2 77% 30.24 0.0
07 05:15 Calm 10.00 Fair CLR 32.5 26.2 78% 30.25 0.0
07 04:55 Calm 10.00 Fair CLR 32.5 25.9 39.7 32.5 76% 30.25 0.0
07 04:35 Calm 10.00 Fair CLR 32.7 25.9 76% 30.25 0.0
07 04:15 Calm 10.00 Fair CLR 33.3 25.5 73% 30.25 0.0
07 03:55 Calm 10.00 Fair CLR 33.6 25 71% 30.25 0.0
07 03:35 Calm 10.00 Fair CLR 33.6 24.8 70% 30.25 0.0
07 03:15 Calm 10.00 Fair CLR 34 25.2 70% 30.25 0.0
07 02:55 Calm 10.00 Fair CLR 34.3 24.8 68% 30.25 0.0
07 02:35 Calm 10.00 Fair CLR 34.7 24.8 67% 30.25 0.0
07 02:15 SW 3 10.00 Fair CLR 35.2 24.8 66% 30.25 0.0
07 01:55 Calm 10.00 Fair CLR 35.2 24.4 65% 30.26 0.0
07 01:35 Calm 10.00 Fair CLR 35.6 24.3 63% 30.26 0.0
07 01:15 Calm 10.00 Fair CLR 36.3 24.6 63% 30.26 0.0
Date Time (pdt) Wind (mph) Vis. (mi.) Weather Sky Cond. Air Dwpt Max. Min. Relative Humidity Wind Chill (°F) Heat Index (°F) altimeter (in) sea level (mb) 1 hr 3 hr 6 hr
6 hour
Temperature (ºF) Pressure Precipitation (in)